createdAt,value
2018-02-10T00:01:43.580Z,54.20
2018-02-10T00:04:11.126Z,53.70
2018-02-10T00:06:38.698Z,53.50
2018-02-10T00:09:06.275Z,53.30
2018-02-10T00:11:33.824Z,53.60
2018-02-10T00:14:01.385Z,53.60
2018-02-10T00:16:28.951Z,53.90
2018-02-10T00:18:56.514Z,54.00
2018-02-10T00:21:24.145Z,53.90
2018-02-10T00:23:51.673Z,53.50
2018-02-10T00:26:19.280Z,53.40
2018-02-10T00:28:46.915Z,53.70
2018-02-10T00:31:14.437Z,53.80
2018-02-10T00:33:41.997Z,53.80
2018-02-10T00:36:09.525Z,53.60
2018-02-10T00:38:37.101Z,53.70
2018-02-10T00:41:04.642Z,53.80
2018-02-10T00:43:32.216Z,53.70
2018-02-10T00:45:59.794Z,53.60
2018-02-10T00:48:27.373Z,53.80
2018-02-10T00:50:54.957Z,53.40
2018-02-10T00:53:22.472Z,53.50
2018-02-10T00:55:50.806Z,53.50
2018-02-10T00:58:18.368Z,53.40
2018-02-10T01:00:46.679Z,53.30
2018-02-10T01:03:14.249Z,53.20
2018-02-10T01:05:41.816Z,53.30
2018-02-10T01:08:10.229Z,53.20
2018-02-10T01:10:37.790Z,53.10
2018-02-10T01:13:05.366Z,53.30
2018-02-10T01:15:33.063Z,53.50
2018-02-10T01:18:00.634Z,53.60
2018-02-10T01:20:28.969Z,53.70
2018-02-10T01:22:56.521Z,53.70
2018-02-10T01:25:24.047Z,53.40
2018-02-10T01:27:51.596Z,53.00
2018-02-10T01:30:19.145Z,52.90
2018-02-10T01:32:47.484Z,52.90
2018-02-10T01:35:15.073Z,52.90
2018-02-10T01:37:42.634Z,53.00
2018-02-10T01:40:10.183Z,53.10
2018-02-10T01:42:37.755Z,53.30
2018-02-10T01:45:05.330Z,53.20
2018-02-10T01:47:32.908Z,53.40
2018-02-10T01:50:12.319Z,53.30
2018-02-10T01:52:40.614Z,53.80
2018-02-10T01:55:08.173Z,53.70
2018-02-10T01:57:36.476Z,53.90
2018-02-10T02:00:04.048Z,53.90
2018-02-10T02:02:31.620Z,53.80
2018-02-10T02:04:59.148Z,54.00
2018-02-10T02:07:26.732Z,53.70
2018-02-10T02:09:54.285Z,53.50
2018-02-10T02:12:21.860Z,53.20
2018-02-10T02:14:49.468Z,53.10
2018-02-10T02:17:17.033Z,52.90
2018-02-10T02:19:44.605Z,53.20
2018-02-10T02:22:12.138Z,53.30
2018-02-10T02:24:39.714Z,53.20
2018-02-10T02:27:07.289Z,53.00
2018-02-10T02:29:34.820Z,53.00
2018-02-10T02:32:02.366Z,53.10
2018-02-10T02:34:29.939Z,53.00
2018-02-10T02:36:58.265Z,53.20
2018-02-10T02:39:25.868Z,53.10
2018-02-10T02:41:53.438Z,53.50
2018-02-10T02:44:21.004Z,53.70
2018-02-10T02:46:49.328Z,53.80
2018-02-10T02:49:16.843Z,53.80
2018-02-10T02:51:44.421Z,53.70
2018-02-10T02:54:11.951Z,53.70
2018-02-10T02:56:39.550Z,53.60
2018-02-10T02:59:07.076Z,53.60
2018-02-10T03:01:34.667Z,53.80
2018-02-10T03:04:02.207Z,53.90
2018-02-10T03:06:30.503Z,54.00
2018-02-10T03:08:58.063Z,53.90
2018-02-10T03:11:25.670Z,53.90
2018-02-10T03:13:53.199Z,53.80
2018-02-10T03:16:20.763Z,54.00
2018-02-10T03:18:48.274Z,53.80
2018-02-10T03:21:15.831Z,54.00
2018-02-10T03:23:43.395Z,54.20
2018-02-10T03:26:10.937Z,54.20
2018-02-10T03:28:38.489Z,54.30
2018-02-10T03:31:06.060Z,54.30
2018-02-10T03:33:34.394Z,54.10
2018-02-10T03:36:01.939Z,54.00
2018-02-10T03:38:29.516Z,53.90
2018-02-10T03:40:57.032Z,53.90
2018-02-10T03:43:24.579Z,54.00
2018-02-10T03:45:52.859Z,53.90
2018-02-10T03:48:20.404Z,53.90
2018-02-10T03:50:48.748Z,53.00
2018-02-10T03:53:16.306Z,54.00
2018-02-10T03:55:43.831Z,54.10
2018-02-10T03:58:11.360Z,54.10
2018-02-10T04:00:38.927Z,54.50
2018-02-10T04:03:07.266Z,55.20
2018-02-10T04:05:34.821Z,55.20
2018-02-10T04:08:02.573Z,55.00
2018-02-10T04:10:30.132Z,55.00
2018-02-10T04:12:57.655Z,55.00
2018-02-10T04:15:25.204Z,54.60
2018-02-10T04:17:53.594Z,54.70
2018-02-10T04:20:21.880Z,54.80
2018-02-10T04:22:49.432Z,54.80
2018-02-10T04:25:17.768Z,54.40
2018-02-10T04:27:45.280Z,54.30
2018-02-10T04:30:12.819Z,54.60
2018-02-10T04:32:40.384Z,54.30
2018-02-10T04:35:07.956Z,54.20
2018-02-10T04:37:35.840Z,54.90
2018-02-10T04:40:03.762Z,54.30
2018-02-10T04:42:32.075Z,54.20
2018-02-10T04:44:59.607Z,54.10
2018-02-10T04:47:27.960Z,54.10
2018-02-10T04:49:55.505Z,54.10
2018-02-10T04:52:23.058Z,54.10
2018-02-10T04:54:50.612Z,53.80
2018-02-10T04:57:18.139Z,53.80
2018-02-10T04:59:46.430Z,53.50
2018-02-10T05:02:13.984Z,53.50
2018-02-10T05:04:41.492Z,53.70
2018-02-10T05:07:09.002Z,53.90
2018-02-10T05:09:36.540Z,54.10
2018-02-10T05:12:04.082Z,54.40
2018-02-10T05:14:31.644Z,54.20
2018-02-10T05:16:59.170Z,54.30
2018-02-10T05:19:26.692Z,54.10
2018-02-10T05:21:54.255Z,54.10
2018-02-10T05:24:21.767Z,54.00
2018-02-10T05:26:49.308Z,54.10
2018-02-10T05:29:16.871Z,53.70
2018-02-10T05:31:44.464Z,53.50
2018-02-10T05:34:12.015Z,53.70
2018-02-10T05:36:39.528Z,53.50
2018-02-10T05:39:07.087Z,53.90
2018-02-10T05:41:34.645Z,54.00
2018-02-10T05:44:02.195Z,54.00
2018-02-10T05:46:29.741Z,54.00
2018-02-10T05:48:57.342Z,54.00
2018-02-10T05:51:24.858Z,54.30
2018-02-10T05:53:52.424Z,54.70
2018-02-10T05:56:19.971Z,55.00
2018-02-10T05:58:48.292Z,55.00
2018-02-10T06:01:15.807Z,54.90
2018-02-10T06:03:43.367Z,54.90
2018-02-10T06:06:10.962Z,55.00
2018-02-10T06:08:38.513Z,55.40
2018-02-10T06:11:06.051Z,54.50
2018-02-10T06:13:33.566Z,54.60
2018-02-10T06:16:01.103Z,54.30
2018-02-10T06:18:28.659Z,54.20
2018-02-10T06:20:56.227Z,54.20
2018-02-10T06:23:23.854Z,54.20
2018-02-10T06:25:51.389Z,54.20
2018-02-10T06:28:18.946Z,54.10
2018-02-10T06:30:46.465Z,54.90
2018-02-10T06:33:14.019Z,53.70
2018-02-10T06:35:41.605Z,54.40
2018-02-10T06:38:09.115Z,54.60
2018-02-10T06:40:36.669Z,54.50
2018-02-10T06:43:04.183Z,54.50
2018-02-10T06:45:31.742Z,54.60
2018-02-10T06:47:59.297Z,54.50
2018-02-10T06:50:26.808Z,54.60
2018-02-10T06:52:55.119Z,54.50
2018-02-10T06:55:22.648Z,54.50
2018-02-10T06:57:50.209Z,54.70
2018-02-10T07:00:17.727Z,54.90
2018-02-10T07:02:45.254Z,54.90
2018-02-10T07:05:12.810Z,55.10
2018-02-10T07:07:40.348Z,55.00
2018-02-10T07:10:07.902Z,54.70
2018-02-10T07:12:36.187Z,54.60
2018-02-10T07:15:03.746Z,54.50
2018-02-10T07:17:31.269Z,54.80
2018-02-10T07:19:58.829Z,55.30
2018-02-10T07:22:26.388Z,55.10
2018-02-10T07:24:54.751Z,55.00
2018-02-10T07:27:22.296Z,55.00
2018-02-10T07:29:49.833Z,54.90
2018-02-10T07:32:17.378Z,54.70
2018-02-10T07:34:44.968Z,54.90
2018-02-10T07:37:12.511Z,55.00
2018-02-10T07:39:40.031Z,54.80
2018-02-10T07:42:07.636Z,54.80
2018-02-10T07:44:35.209Z,55.60
2018-02-10T07:47:02.770Z,55.00
2018-02-10T07:49:30.328Z,55.00
2018-02-10T07:51:57.847Z,55.10
2018-02-10T07:54:25.437Z,55.20
2018-02-10T07:56:52.947Z,55.00
2018-02-10T07:59:21.253Z,55.00
2018-02-10T08:01:48.817Z,55.00
2018-02-10T08:04:16.375Z,55.00
2018-02-10T08:06:43.888Z,55.00
2018-02-10T08:09:11.463Z,55.30
2018-02-10T08:11:38.983Z,55.30
2018-02-10T08:14:06.665Z,55.00
2018-02-10T08:16:34.204Z,54.70
2018-02-10T08:19:01.744Z,54.60
2018-02-10T08:21:29.391Z,54.40
2018-02-10T08:23:56.980Z,54.20
2018-02-10T08:26:24.532Z,54.20
2018-02-10T08:28:52.113Z,54.00
2018-02-10T08:31:19.667Z,53.60
2018-02-10T08:33:47.236Z,53.50
2018-02-10T08:36:14.833Z,53.40
2018-02-10T08:38:43.169Z,53.50
2018-02-10T08:41:10.715Z,53.50
2018-02-10T08:43:38.283Z,54.20
2018-02-10T08:46:05.989Z,53.50
2018-02-10T08:48:33.553Z,53.30
2018-02-10T08:51:01.863Z,53.40
2018-02-10T08:53:29.420Z,53.40
2018-02-10T08:55:57.070Z,53.60
2018-02-10T08:58:24.676Z,53.70
2018-02-10T09:00:52.209Z,53.60
2018-02-10T09:03:19.869Z,53.70
2018-02-10T09:05:47.478Z,54.30
2018-02-10T09:08:15.042Z,54.00
2018-02-10T09:10:42.573Z,53.90
2018-02-10T09:13:10.105Z,53.60
2018-02-10T09:15:37.646Z,53.90
2018-02-10T09:18:05.203Z,53.90
2018-02-10T09:20:33.528Z,54.10
2018-02-10T09:23:01.073Z,53.90
2018-02-10T09:25:28.631Z,54.10
2018-02-10T09:27:56.161Z,53.90
2018-02-10T09:30:23.672Z,53.60
2018-02-10T09:32:51.221Z,53.60
2018-02-10T09:35:18.780Z,53.80
2018-02-10T09:37:46.346Z,54.00
2018-02-10T09:40:13.861Z,53.90
2018-02-10T09:42:41.407Z,53.60
2018-02-10T09:45:09.013Z,53.80
2018-02-10T09:47:36.610Z,53.70
2018-02-10T09:50:04.123Z,53.70
2018-02-10T09:52:31.680Z,53.80
2018-02-10T09:54:59.203Z,53.50
2018-02-10T09:57:27.537Z,53.60
2018-02-10T09:59:55.132Z,53.60
2018-02-10T10:02:22.669Z,53.60
2018-02-10T10:04:50.218Z,52.70
2018-02-10T10:07:17.949Z,52.40
2018-02-10T10:09:45.521Z,52.70
2018-02-10T10:12:13.036Z,52.60
2018-02-10T10:14:40.609Z,52.30
2018-02-10T10:17:08.161Z,52.10
2018-02-10T10:19:36.505Z,52.00
2018-02-10T10:22:04.059Z,51.90
2018-02-10T10:24:31.655Z,51.80
2018-02-10T10:26:59.245Z,51.70
2018-02-10T10:29:26.788Z,51.50
2018-02-10T10:31:54.348Z,51.50
2018-02-10T10:34:21.868Z,51.80
2018-02-10T10:36:49.537Z,51.90
2018-02-10T10:39:17.149Z,51.50
2018-02-10T10:41:44.734Z,51.50
2018-02-10T10:44:12.300Z,51.40
2018-02-10T10:46:39.896Z,50.90
2018-02-10T10:49:07.413Z,51.00
2018-02-10T10:51:34.993Z,51.10
2018-02-10T10:54:02.523Z,51.20
2018-02-10T10:56:30.285Z,51.20
2018-02-10T10:58:57.822Z,51.40
2018-02-10T11:01:25.344Z,51.40
2018-02-10T11:03:52.944Z,51.30
2018-02-10T11:06:20.608Z,51.40
2018-02-10T11:08:48.129Z,51.10
2018-02-10T11:11:15.692Z,51.20
2018-02-10T11:13:43.203Z,51.10
2018-02-10T11:16:11.669Z,51.20
2018-02-10T11:18:39.229Z,50.90
2018-02-10T11:21:06.974Z,50.60
2018-02-10T11:23:35.314Z,51.00
2018-02-10T11:26:02.865Z,51.00
2018-02-10T11:28:30.418Z,50.70
2018-02-10T11:30:57.982Z,50.40
2018-02-10T11:33:25.572Z,50.60
2018-02-10T11:35:53.179Z,50.60
2018-02-10T11:38:20.795Z,50.60
2018-02-10T11:40:48.348Z,50.70
2018-02-10T11:43:15.897Z,50.80
2018-02-10T11:45:43.417Z,50.60
2018-02-10T11:48:11.020Z,50.30
2018-02-10T11:50:38.559Z,50.20
2018-02-10T11:53:06.122Z,50.20
2018-02-10T11:55:33.678Z,50.70
2018-02-10T11:58:01.235Z,50.10
2018-02-10T12:00:28.785Z,50.30
2018-02-10T12:02:56.323Z,50.10
2018-02-10T12:05:23.877Z,50.30
2018-02-10T12:07:51.450Z,50.30
2018-02-10T12:10:19.035Z,50.50
2018-02-10T12:12:46.800Z,50.50
2018-02-10T12:15:14.405Z,50.30
2018-02-10T12:17:42.745Z,50.20
2018-02-10T12:20:10.256Z,50.20
2018-02-10T12:22:38.560Z,50.20
2018-02-10T12:25:06.158Z,50.10
2018-02-10T12:27:33.673Z,50.30
2018-02-10T12:30:01.233Z,50.30
2018-02-10T12:32:28.775Z,50.50
2018-02-10T12:34:57.070Z,50.40
2018-02-10T12:37:24.634Z,50.40
2018-02-10T12:39:52.172Z,50.20
2018-02-10T12:42:19.726Z,50.30
2018-02-10T12:44:47.278Z,50.10
2018-02-10T12:47:15.644Z,51.00
2018-02-10T12:49:43.209Z,50.30
2018-02-10T12:52:10.776Z,50.10
2018-02-10T12:54:38.335Z,50.30
2018-02-10T12:57:06.676Z,50.30
2018-02-10T12:59:34.272Z,50.30
2018-02-10T13:02:01.872Z,50.30
2018-02-10T13:04:29.532Z,50.20
2018-02-10T13:06:57.566Z,50.40
2018-02-10T13:09:25.164Z,50.30
2018-02-10T13:11:52.752Z,50.40
2018-02-10T13:14:20.331Z,50.60
2018-02-10T13:16:47.874Z,50.50
2018-02-10T13:19:15.385Z,50.50
2018-02-10T13:21:42.966Z,50.30
2018-02-10T13:24:10.564Z,50.00
2018-02-10T13:26:38.904Z,50.10
2018-02-10T13:29:06.568Z,50.00
2018-02-10T13:31:34.107Z,50.10
2018-02-10T13:34:01.671Z,50.50
2018-02-10T13:36:29.274Z,50.50
2018-02-10T13:38:56.889Z,50.30
2018-02-10T13:41:24.552Z,50.60
2018-02-10T13:43:52.140Z,50.60
2018-02-10T13:46:19.672Z,50.90
2018-02-10T13:48:47.216Z,50.70
2018-02-10T13:51:14.795Z,50.60
2018-02-10T13:53:42.392Z,50.60
2018-02-10T13:56:10.345Z,50.40
2018-02-10T13:58:37.905Z,50.60
2018-02-10T14:01:05.501Z,50.70
2018-02-10T14:03:33.979Z,50.80
2018-02-10T14:06:01.601Z,50.80
2018-02-10T14:08:29.152Z,50.80
2018-02-10T14:10:56.694Z,50.90
2018-02-10T14:13:24.332Z,51.00
2018-02-10T14:15:52.628Z,51.10
2018-02-10T14:18:20.163Z,51.10
2018-02-10T14:20:48.460Z,51.10
2018-02-10T14:23:15.996Z,51.10
2018-02-10T14:25:43.556Z,51.20
2018-02-10T14:28:11.130Z,51.50
2018-02-10T14:30:38.729Z,51.70
2018-02-10T14:33:06.289Z,51.80
2018-02-10T14:35:33.831Z,51.90
2018-02-10T14:38:01.361Z,52.00
2018-02-10T14:40:29.705Z,52.30
2018-02-10T14:42:57.259Z,52.20
2018-02-10T14:45:24.811Z,52.50
2018-02-10T14:47:52.327Z,52.60
2018-02-10T14:50:19.896Z,52.60
2018-02-10T14:52:48.221Z,52.70
2018-02-10T14:55:15.779Z,52.60
2018-02-10T14:57:43.331Z,52.90
2018-02-10T15:00:10.864Z,53.20
2018-02-10T15:02:38.397Z,53.50
2018-02-10T15:05:06.736Z,53.50
2018-02-10T15:07:34.315Z,53.50
2018-02-10T15:10:01.856Z,53.50
2018-02-10T15:12:29.434Z,53.20
2018-02-10T15:14:56.978Z,53.10
2018-02-10T15:17:25.248Z,52.70
2018-02-10T15:19:52.797Z,52.70
2018-02-10T15:22:20.332Z,52.50
2018-02-10T15:24:47.861Z,52.50
2018-02-10T15:27:15.424Z,52.00
2018-02-10T15:29:54.681Z,52.10
2018-02-10T15:32:34.180Z,52.30
2018-02-10T15:35:01.708Z,52.10
2018-02-10T15:37:29.271Z,51.90
2018-02-10T15:39:56.851Z,51.70
2018-02-10T15:42:25.173Z,51.50
2018-02-10T15:44:52.728Z,51.40
2018-02-10T15:47:20.358Z,51.60
2018-02-10T15:49:47.872Z,51.60
2018-02-10T15:52:15.467Z,51.60
2018-02-10T15:54:43.699Z,52.00
2018-02-10T15:57:11.208Z,52.00
2018-02-10T15:59:38.846Z,51.80
2018-02-10T16:02:06.413Z,51.80
2018-02-10T16:04:33.945Z,51.90
2018-02-10T16:07:01.487Z,51.90
2018-02-10T16:09:29.805Z,52.10
2018-02-10T16:11:57.378Z,52.00
2018-02-10T16:14:24.926Z,51.90
2018-02-10T16:16:52.483Z,52.20
2018-02-10T16:19:20.043Z,52.30
2018-02-10T16:21:47.605Z,52.40
2018-02-10T16:24:15.132Z,52.50
2018-02-10T16:26:42.644Z,52.60
2018-02-10T16:29:10.197Z,52.60
2018-02-10T16:31:37.743Z,52.60
2018-02-10T16:34:05.311Z,52.80
2018-02-10T16:36:32.862Z,52.80
2018-02-10T16:39:00.384Z,52.80
2018-02-10T16:41:27.929Z,52.80
2018-02-10T16:43:55.504Z,53.00
2018-02-10T16:46:23.222Z,53.10
2018-02-10T16:48:50.770Z,53.10
2018-02-10T16:51:18.287Z,53.10
2018-02-10T16:53:45.880Z,53.20
2018-02-10T16:56:13.403Z,53.10
2018-02-10T16:58:40.968Z,53.00
2018-02-10T17:01:08.494Z,52.90
2018-02-10T17:03:36.058Z,53.00
2018-02-10T17:06:04.404Z,53.50
2018-02-10T17:08:31.942Z,53.50
2018-02-10T17:10:59.491Z,53.40
2018-02-10T17:13:27.032Z,53.50
2018-02-10T17:15:54.552Z,53.20
2018-02-10T17:18:22.183Z,53.30
2018-02-10T17:20:49.738Z,53.20
2018-02-10T17:23:17.296Z,53.20
2018-02-10T17:25:45.647Z,53.40
2018-02-10T17:28:14.003Z,53.30
2018-02-10T17:30:41.539Z,53.30
2018-02-10T17:33:09.120Z,53.50
2018-02-10T17:35:36.672Z,53.50
2018-02-10T17:38:04.244Z,53.80
2018-02-10T17:40:31.755Z,53.70
2018-02-10T17:42:59.275Z,53.70
2018-02-10T17:45:26.840Z,53.70
2018-02-10T17:47:55.218Z,54.10
2018-02-10T17:50:23.533Z,53.80
2018-02-10T17:52:51.078Z,53.80
2018-02-10T17:55:18.600Z,53.30
2018-02-10T17:57:46.198Z,53.30
2018-02-10T18:00:13.719Z,53.30
2018-02-10T18:02:42.080Z,53.90
2018-02-10T18:05:09.676Z,53.80
2018-02-10T18:07:37.239Z,53.70
2018-02-10T18:10:04.860Z,53.70
2018-02-10T18:12:32.390Z,54.10
2018-02-10T18:14:59.964Z,54.30
2018-02-10T18:17:27.544Z,54.80
2018-02-10T18:19:55.100Z,54.90
2018-02-10T18:22:22.630Z,54.70
2018-02-10T18:24:50.144Z,54.80
2018-02-10T18:27:18.630Z,54.50
2018-02-10T18:29:46.223Z,54.50
2018-02-10T18:32:13.791Z,54.50
2018-02-10T18:34:41.359Z,54.60
2018-02-10T18:37:08.885Z,54.90
2018-02-10T18:39:36.430Z,54.70
2018-02-10T18:42:03.983Z,54.90
2018-02-10T18:44:31.594Z,55.00
2018-02-10T18:46:59.126Z,55.40
2018-02-10T18:49:26.651Z,55.40
2018-02-10T18:51:54.278Z,55.20
2018-02-10T18:54:21.837Z,55.20
2018-02-10T18:56:49.384Z,54.90
2018-02-10T18:59:16.941Z,55.20
2018-02-10T19:01:44.463Z,55.40
2018-02-10T19:04:12.792Z,55.20
2018-02-10T19:06:40.314Z,55.00
2018-02-10T19:09:08.689Z,54.70
2018-02-10T19:11:36.241Z,54.60
2018-02-10T19:14:04.666Z,54.70
2018-02-10T19:16:32.189Z,54.70
2018-02-10T19:18:59.732Z,54.90
2018-02-10T19:21:27.251Z,54.70
2018-02-10T19:23:54.840Z,54.50
2018-02-10T19:26:22.355Z,54.50
2018-02-10T19:28:49.930Z,54.20
2018-02-10T19:31:17.451Z,54.50
2018-02-10T19:33:45.029Z,54.90
2018-02-10T19:36:12.556Z,54.70
2018-02-10T19:38:40.873Z,54.50
2018-02-10T19:41:08.403Z,54.50
2018-02-10T19:43:35.948Z,54.50
2018-02-10T19:46:03.467Z,54.70
2018-02-10T19:48:31.053Z,54.50
2018-02-10T19:50:58.620Z,54.40
2018-02-10T19:53:26.193Z,54.70
2018-02-10T19:55:53.748Z,54.80
2018-02-10T19:58:22.067Z,54.60
2018-02-10T20:00:49.622Z,54.50
2018-02-10T20:03:17.199Z,54.50
2018-02-10T20:05:44.730Z,54.50
2018-02-10T20:08:12.302Z,54.50
2018-02-10T20:10:39.824Z,54.50
2018-02-10T20:13:07.369Z,54.30
2018-02-10T20:15:34.932Z,54.30
2018-02-10T20:18:02.489Z,54.30
2018-02-10T20:20:30.048Z,54.40
2018-02-10T20:22:57.572Z,54.50
2018-02-10T20:25:25.144Z,54.70
2018-02-10T20:27:52.680Z,54.70
2018-02-10T20:30:20.240Z,54.90
2018-02-10T20:32:47.781Z,54.80
2018-02-10T20:35:15.306Z,54.70
2018-02-10T20:37:42.860Z,54.50
2018-02-10T20:40:10.478Z,54.40
2018-02-10T20:42:38.064Z,54.50
2018-02-10T20:45:05.644Z,54.30
2018-02-10T20:47:33.197Z,54.60
2018-02-10T20:50:00.779Z,54.70
2018-02-10T20:52:28.331Z,54.80
2018-02-10T20:54:55.911Z,54.80
2018-02-10T20:57:23.423Z,54.60
2018-02-10T20:59:51.009Z,54.60
2018-02-10T21:02:18.516Z,54.70
2018-02-10T21:04:46.028Z,55.00
2018-02-10T21:07:13.609Z,55.00
2018-02-10T21:09:41.168Z,55.00
2018-02-10T21:12:09.579Z,54.80
2018-02-10T21:14:37.136Z,54.80
2018-02-10T21:17:04.706Z,54.80
2018-02-10T21:19:32.254Z,54.90
2018-02-10T21:21:59.779Z,54.90
2018-02-10T21:24:27.343Z,54.90
2018-02-10T21:26:54.902Z,55.00
2018-02-10T21:29:23.213Z,55.20
2018-02-10T21:31:50.766Z,55.00
2018-02-10T21:34:18.307Z,55.00
2018-02-10T21:36:45.834Z,55.00
2018-02-10T21:39:13.406Z,54.80
2018-02-10T21:41:41.701Z,55.00
2018-02-10T21:44:09.243Z,55.00
2018-02-10T21:46:37.571Z,54.90
2018-02-10T21:49:05.080Z,54.90
2018-02-10T21:51:33.445Z,55.00
2018-02-10T21:54:00.966Z,55.00
2018-02-10T21:56:28.545Z,55.10
2018-02-10T21:58:56.122Z,55.30
2018-02-10T22:01:23.678Z,55.20
2018-02-10T22:03:51.209Z,55.20
2018-02-10T22:06:18.798Z,55.30
2018-02-10T22:08:46.356Z,55.00
2018-02-10T22:11:13.923Z,55.10
2018-02-10T22:13:41.479Z,55.30
2018-02-10T22:16:09.048Z,55.30
2018-02-10T22:18:36.666Z,55.30
2018-02-10T22:21:04.195Z,55.10
2018-02-10T22:23:32.492Z,54.80
2018-02-10T22:26:00.032Z,54.80
2018-02-10T22:28:27.622Z,54.50
2018-02-10T22:30:55.200Z,54.30
2018-02-10T22:33:22.729Z,54.60
2018-02-10T22:35:50.232Z,54.40
2018-02-10T22:38:17.792Z,54.50
2018-02-10T22:40:45.320Z,54.60
2018-02-10T22:43:12.889Z,55.00
2018-02-10T22:45:40.439Z,54.80
2018-02-10T22:48:07.970Z,54.50
2018-02-10T22:50:35.546Z,54.70
2018-02-10T22:53:03.055Z,54.20
2018-02-10T22:55:30.581Z,54.70
2018-02-10T22:57:58.121Z,54.50
2018-02-10T23:00:25.667Z,54.50
2018-02-10T23:02:53.216Z,54.80
2018-02-10T23:05:20.725Z,54.80
2018-02-10T23:07:48.280Z,54.60
2018-02-10T23:10:15.797Z,54.20
2018-02-10T23:12:44.145Z,54.00
2018-02-10T23:15:11.758Z,54.00
2018-02-10T23:17:39.268Z,54.10
2018-02-10T23:20:06.878Z,53.90
2018-02-10T23:22:34.425Z,53.70
2018-02-10T23:25:01.949Z,53.80
2018-02-10T23:27:29.515Z,53.70
2018-02-10T23:29:57.787Z,53.90
2018-02-10T23:32:25.333Z,53.90
2018-02-10T23:34:52.888Z,53.70
2018-02-10T23:37:20.449Z,53.70
2018-02-10T23:39:47.974Z,53.70
2018-02-10T23:42:15.507Z,53.70
2018-02-10T23:44:43.792Z,53.70
2018-02-10T23:47:11.344Z,53.60
2018-02-10T23:49:38.864Z,53.90
2018-02-10T23:52:06.412Z,53.70
2018-02-10T23:54:34.007Z,53.40
2018-02-10T23:57:02.323Z,53.50
2018-02-10T23:59:29.865Z,53.40
